sensor_id;sensor_type;location;lat;lon;timestamp;P1;durP1;ratioP1;P2;durP2;ratioP2
49852;SDS011;35751;48.072;11.688;2022-12-24T00:01:56;1.08;;;0.60;;
49852;SDS011;35751;48.072;11.688;2022-12-24T00:04:22;1.08;;;0.60;;
49852;SDS011;35751;48.072;11.688;2022-12-24T00:06:48;1.33;;;0.90;;
49852;SDS011;35751;48.072;11.688;2022-12-24T00:09:14;1.05;;;0.60;;
49852;SDS011;35751;48.072;11.688;2022-12-24T00:11:39;1.38;;;0.65;;
49852;SDS011;35751;48.072;11.688;2022-12-24T00:14:05;0.82;;;0.50;;
49852;SDS011;35751;48.072;11.688;2022-12-24T00:16:30;0.85;;;0.50;;
49852;SDS011;35751;48.072;11.688;2022-12-24T00:18:56;0.93;;;0.77;;
49852;SDS011;35751;48.072;11.688;2022-12-24T00:21:22;0.40;;;0.40;;
49852;SDS011;35751;48.072;11.688;2022-12-24T00:23:48;1.77;;;0.52;;
49852;SDS011;35751;48.072;11.688;2022-12-24T00:26:14;0.40;;;0.40;;
49852;SDS011;35751;48.072;11.688;2022-12-24T00:28:40;0.50;;;0.50;;
49852;SDS011;35751;48.072;11.688;2022-12-24T00:31:06;1.05;;;0.80;;
49852;SDS011;35751;48.072;11.688;2022-12-24T00:33:32;4.57;;;0.68;;
49852;SDS011;35751;48.072;11.688;2022-12-24T00:35:58;1.55;;;0.93;;
49852;SDS011;35751;48.072;11.688;2022-12-24T00:38:24;0.70;;;0.60;;
49852;SDS011;35751;48.072;11.688;2022-12-24T00:40:49;0.52;;;0.50;;
49852;SDS011;35751;48.072;11.688;2022-12-24T00:43:15;1.45;;;0.52;;
49852;SDS011;35751;48.072;11.688;2022-12-24T00:45:40;1.27;;;0.70;;
49852;SDS011;35751;48.072;11.688;2022-12-24T00:48:06;1.17;;;0.85;;
49852;SDS011;35751;48.072;11.688;2022-12-24T00:50:32;0.70;;;0.52;;
49852;SDS011;35751;48.072;11.688;2022-12-24T00:52:57;0.50;;;0.50;;
49852;SDS011;35751;48.072;11.688;2022-12-24T00:55:23;1.27;;;0.50;;
49852;SDS011;35751;48.072;11.688;2022-12-24T00:57:49;0.47;;;0.40;;
49852;SDS011;35751;48.072;11.688;2022-12-24T01:00:14;0.68;;;0.68;;
49852;SDS011;35751;48.072;11.688;2022-12-24T01:02:41;2.53;;;0.77;;
49852;SDS011;35751;48.072;11.688;2022-12-24T01:05:08;2.05;;;0.40;;
49852;SDS011;35751;48.072;11.688;2022-12-24T01:07:42;1.50;;;0.80;;
49852;SDS011;35751;48.072;11.688;2022-12-24T01:10:09;0.57;;;0.57;;
49852;SDS011;35751;48.072;11.688;2022-12-24T01:12:36;1.27;;;0.73;;
49852;SDS011;35751;48.072;11.688;2022-12-24T01:15:02;3.08;;;0.70;;
49852;SDS011;35751;48.072;11.688;2022-12-24T01:17:30;0.90;;;0.73;;
49852;SDS011;35751;48.072;11.688;2022-12-24T01:19:56;0.60;;;0.50;;
49852;SDS011;35751;48.072;11.688;2022-12-24T01:22:21;2.15;;;1.02;;
49852;SDS011;35751;48.072;11.688;2022-12-24T01:24:47;2.15;;;0.63;;
49852;SDS011;35751;48.072;11.688;2022-12-24T01:27:13;1.00;;;0.68;;
49852;SDS011;35751;48.072;11.688;2022-12-24T01:29:39;1.27;;;0.63;;
49852;SDS011;35751;48.072;11.688;2022-12-24T01:32:05;1.17;;;0.60;;
49852;SDS011;35751;48.072;11.688;2022-12-24T01:34:30;1.75;;;0.55;;
49852;SDS011;35751;48.072;11.688;2022-12-24T01:36:56;0.77;;;0.60;;
49852;SDS011;35751;48.072;11.688;2022-12-24T01:39:22;0.95;;;0.60;;
49852;SDS011;35751;48.072;11.688;2022-12-24T01:41:47;2.10;;;0.90;;
49852;SDS011;35751;48.072;11.688;2022-12-24T01:44:33;1.58;;;0.70;;
49852;SDS011;35751;48.072;11.688;2022-12-24T01:49:56;1.40;;;0.70;;
49852;SDS011;35751;48.072;11.688;2022-12-24T01:52:28;2.80;;;0.90;;
49852;SDS011;35751;48.072;11.688;2022-12-24T01:55:05;0.98;;;0.60;;
49852;SDS011;35751;48.072;11.688;2022-12-24T01:57:33;1.00;;;0.90;;
49852;SDS011;35751;48.072;11.688;2022-12-24T02:00:04;2.55;;;0.90;;
49852;SDS011;35751;48.072;11.688;2022-12-24T02:02:31;2.67;;;0.88;;
49852;SDS011;35751;48.072;11.688;2022-12-24T02:05:02;0.90;;;0.65;;
49852;SDS011;35751;48.072;11.688;2022-12-24T02:07:30;1.08;;;0.68;;
49852;SDS011;35751;48.072;11.688;2022-12-24T02:09:57;3.17;;;0.80;;
49852;SDS011;35751;48.072;11.688;2022-12-24T02:12:24;1.35;;;0.80;;
49852;SDS011;35751;48.072;11.688;2022-12-24T02:14:52;2.22;;;0.80;;
49852;SDS011;35751;48.072;11.688;2022-12-24T02:17:31;2.05;;;0.68;;
49852;SDS011;35751;48.072;11.688;2022-12-24T02:34:17;2.80;;;1.70;;
49852;SDS011;35751;48.072;11.688;2022-12-24T02:37:08;0.88;;;0.60;;
49852;SDS011;35751;48.072;11.688;2022-12-24T02:42:11;3.05;;;0.85;;
49852;SDS011;35751;48.072;11.688;2022-12-24T02:44:42;2.28;;;0.93;;
49852;SDS011;35751;48.072;11.688;2022-12-24T02:47:10;1.77;;;0.60;;
49852;SDS011;35751;48.072;11.688;2022-12-24T02:49:37;1.15;;;0.77;;
49852;SDS011;35751;48.072;11.688;2022-12-24T02:52:02;1.70;;;0.80;;
49852;SDS011;35751;48.072;11.688;2022-12-24T02:54:28;1.42;;;0.88;;
49852;SDS011;35751;48.072;11.688;2022-12-24T02:57:05;3.67;;;2.03;;
49852;SDS011;35751;48.072;11.688;2022-12-24T03:13:17;1.83;;;0.77;;
49852;SDS011;35751;48.072;11.688;2022-12-24T03:15:43;1.45;;;0.90;;
49852;SDS011;35751;48.072;11.688;2022-12-24T03:18:11;2.55;;;0.85;;
49852;SDS011;35751;48.072;11.688;2022-12-24T03:20:40;1.58;;;1.20;;
49852;SDS011;35751;48.072;11.688;2022-12-24T03:23:07;1.25;;;0.98;;
49852;SDS011;35751;48.072;11.688;2022-12-24T03:25:33;1.45;;;0.68;;
49852;SDS011;35751;48.072;11.688;2022-12-24T03:28:00;3.50;;;0.90;;
49852;SDS011;35751;48.072;11.688;2022-12-24T03:30:27;4.45;;;1.48;;
49852;SDS011;35751;48.072;11.688;2022-12-24T03:32:53;1.92;;;1.10;;
49852;SDS011;35751;48.072;11.688;2022-12-24T03:35:19;3.47;;;0.93;;
49852;SDS011;35751;48.072;11.688;2022-12-24T03:37:44;1.65;;;0.70;;
49852;SDS011;35751;48.072;11.688;2022-12-24T03:40:10;1.05;;;0.85;;
49852;SDS011;35751;48.072;11.688;2022-12-24T03:42:36;0.85;;;0.70;;
49852;SDS011;35751;48.072;11.688;2022-12-24T03:45:02;0.73;;;0.65;;
49852;SDS011;35751;48.072;11.688;2022-12-24T03:47:29;2.28;;;0.88;;
49852;SDS011;35751;48.072;11.688;2022-12-24T03:49:55;1.27;;;0.82;;
49852;SDS011;35751;48.072;11.688;2022-12-24T03:52:20;1.10;;;0.77;;
49852;SDS011;35751;48.072;11.688;2022-12-24T03:54:46;1.17;;;0.73;;
49852;SDS011;35751;48.072;11.688;2022-12-24T03:57:12;2.20;;;0.65;;
49852;SDS011;35751;48.072;11.688;2022-12-24T03:59:38;1.55;;;0.73;;
49852;SDS011;35751;48.072;11.688;2022-12-24T04:02:03;1.88;;;0.77;;
49852;SDS011;35751;48.072;11.688;2022-12-24T04:04:29;0.93;;;0.82;;
49852;SDS011;35751;48.072;11.688;2022-12-24T04:06:56;1.77;;;0.65;;
49852;SDS011;35751;48.072;11.688;2022-12-24T04:09:22;1.63;;;1.00;;
49852;SDS011;35751;48.072;11.688;2022-12-24T04:11:47;1.45;;;0.88;;
49852;SDS011;35751;48.072;11.688;2022-12-24T04:14:13;1.90;;;0.68;;
49852;SDS011;35751;48.072;11.688;2022-12-24T04:16:39;2.83;;;0.80;;
49852;SDS011;35751;48.072;11.688;2022-12-24T04:19:04;2.33;;;0.65;;
49852;SDS011;35751;48.072;11.688;2022-12-24T04:21:30;0.85;;;0.80;;
49852;SDS011;35751;48.072;11.688;2022-12-24T04:23:56;2.47;;;1.00;;
49852;SDS011;35751;48.072;11.688;2022-12-24T04:26:21;3.38;;;0.88;;
49852;SDS011;35751;48.072;11.688;2022-12-24T04:28:47;0.95;;;0.85;;
49852;SDS011;35751;48.072;11.688;2022-12-24T04:31:14;1.55;;;0.90;;
49852;SDS011;35751;48.072;11.688;2022-12-24T04:33:41;2.08;;;0.43;;
49852;SDS011;35751;48.072;11.688;2022-12-24T04:36:09;1.70;;;0.63;;
49852;SDS011;35751;48.072;11.688;2022-12-24T04:38:37;3.75;;;0.95;;
49852;SDS011;35751;48.072;11.688;2022-12-24T04:41:07;1.92;;;0.55;;
49852;SDS011;35751;48.072;11.688;2022-12-24T04:43:40;1.33;;;1.23;;
49852;SDS011;35751;48.072;11.688;2022-12-24T04:46:06;1.13;;;0.95;;
49852;SDS011;35751;48.072;11.688;2022-12-24T04:48:34;1.38;;;0.70;;
49852;SDS011;35751;48.072;11.688;2022-12-24T04:51:00;1.35;;;0.60;;
49852;SDS011;35751;48.072;11.688;2022-12-24T04:53:27;2.08;;;0.70;;
49852;SDS011;35751;48.072;11.688;2022-12-24T04:55:52;2.10;;;0.68;;
49852;SDS011;35751;48.072;11.688;2022-12-24T04:58:18;7.45;;;1.60;;
49852;SDS011;35751;48.072;11.688;2022-12-24T05:00:44;2.65;;;0.85;;
49852;SDS011;35751;48.072;11.688;2022-12-24T05:03:09;1.50;;;0.93;;
49852;SDS011;35751;48.072;11.688;2022-12-24T05:05:34;1.30;;;0.80;;
49852;SDS011;35751;48.072;11.688;2022-12-24T05:08:00;4.30;;;2.47;;
49852;SDS011;35751;48.072;11.688;2022-12-24T05:10:26;0.75;;;0.52;;
49852;SDS011;35751;48.072;11.688;2022-12-24T05:12:51;1.77;;;0.68;;
49852;SDS011;35751;48.072;11.688;2022-12-24T05:15:17;2.08;;;0.77;;
49852;SDS011;35751;48.072;11.688;2022-12-24T05:17:43;2.25;;;0.88;;
49852;SDS011;35751;48.072;11.688;2022-12-24T05:20:09;2.28;;;1.05;;
49852;SDS011;35751;48.072;11.688;2022-12-24T05:22:34;1.08;;;0.68;;
49852;SDS011;35751;48.072;11.688;2022-12-24T05:25:18;2.10;;;0.75;;
49852;SDS011;35751;48.072;11.688;2022-12-24T05:28:02;1.00;;;0.50;;
49852;SDS011;35751;48.072;11.688;2022-12-24T05:30:27;4.85;;;1.92;;
49852;SDS011;35751;48.072;11.688;2022-12-24T05:32:53;0.95;;;0.77;;
49852;SDS011;35751;48.072;11.688;2022-12-24T05:35:18;1.55;;;0.73;;
49852;SDS011;35751;48.072;11.688;2022-12-24T05:37:44;1.67;;;0.90;;
49852;SDS011;35751;48.072;11.688;2022-12-24T05:40:09;1.13;;;0.70;;
49852;SDS011;35751;48.072;11.688;2022-12-24T05:42:35;2.08;;;0.70;;
49852;SDS011;35751;48.072;11.688;2022-12-24T05:45:00;4.28;;;0.75;;
49852;SDS011;35751;48.072;11.688;2022-12-24T05:47:26;0.80;;;0.55;;
49852;SDS011;35751;48.072;11.688;2022-12-24T05:49:51;1.08;;;0.60;;
49852;SDS011;35751;48.072;11.688;2022-12-24T05:52:17;2.58;;;0.77;;
49852;SDS011;35751;48.072;11.688;2022-12-24T05:54:42;2.17;;;0.80;;
49852;SDS011;35751;48.072;11.688;2022-12-24T05:57:07;2.03;;;1.08;;
49852;SDS011;35751;48.072;11.688;2022-12-24T05:59:33;2.00;;;0.70;;
49852;SDS011;35751;48.072;11.688;2022-12-24T06:01:59;4.88;;;1.00;;
49852;SDS011;35751;48.072;11.688;2022-12-24T06:04:24;0.88;;;0.73;;
49852;SDS011;35751;48.072;11.688;2022-12-24T06:06:49;0.52;;;0.50;;
49852;SDS011;35751;48.072;11.688;2022-12-24T06:09:15;0.63;;;0.60;;
49852;SDS011;35751;48.072;11.688;2022-12-24T06:11:41;2.17;;;1.13;;
49852;SDS011;35751;48.072;11.688;2022-12-24T06:14:06;3.63;;;0.85;;
49852;SDS011;35751;48.072;11.688;2022-12-24T06:16:32;2.88;;;1.27;;
49852;SDS011;35751;48.072;11.688;2022-12-24T06:18:57;1.08;;;0.50;;
49852;SDS011;35751;48.072;11.688;2022-12-24T06:21:23;3.00;;;1.13;;
49852;SDS011;35751;48.072;11.688;2022-12-24T06:23:48;1.38;;;1.10;;
49852;SDS011;35751;48.072;11.688;2022-12-24T06:26:16;1.48;;;0.93;;
49852;SDS011;35751;48.072;11.688;2022-12-24T06:28:43;1.33;;;0.60;;
49852;SDS011;35751;48.072;11.688;2022-12-24T06:31:13;2.08;;;0.73;;
49852;SDS011;35751;48.072;11.688;2022-12-24T06:33:40;0.40;;;0.40;;
49852;SDS011;35751;48.072;11.688;2022-12-24T06:36:09;0.40;;;0.40;;
49852;SDS011;35751;48.072;11.688;2022-12-24T06:38:39;0.70;;;0.30;;
49852;SDS011;35751;48.072;11.688;2022-12-24T06:41:05;0.70;;;0.47;;
49852;SDS011;35751;48.072;11.688;2022-12-24T06:43:31;1.65;;;0.68;;
49852;SDS011;35751;48.072;11.688;2022-12-24T06:46:01;1.65;;;0.45;;
49852;SDS011;35751;48.072;11.688;2022-12-24T06:48:27;0.50;;;0.50;;
49852;SDS011;35751;48.072;11.688;2022-12-24T06:50:53;1.05;;;0.55;;
49852;SDS011;35751;48.072;11.688;2022-12-24T06:53:18;0.40;;;0.40;;
49852;SDS011;35751;48.072;11.688;2022-12-24T06:55:44;0.85;;;0.25;;
49852;SDS011;35751;48.072;11.688;2022-12-24T06:58:10;1.20;;;0.68;;
49852;SDS011;35751;48.072;11.688;2022-12-24T07:00:35;0.52;;;0.32;;
49852;SDS011;35751;48.072;11.688;2022-12-24T07:03:01;0.75;;;0.40;;
49852;SDS011;35751;48.072;11.688;2022-12-24T07:05:27;1.23;;;0.60;;
49852;SDS011;35751;48.072;11.688;2022-12-24T07:07:54;0.70;;;0.52;;
49852;SDS011;35751;48.072;11.688;2022-12-24T07:10:24;0.57;;;0.57;;
49852;SDS011;35751;48.072;11.688;2022-12-24T07:12:50;1.05;;;0.50;;
49852;SDS011;35751;48.072;11.688;2022-12-24T07:15:16;1.27;;;0.77;;
49852;SDS011;35751;48.072;11.688;2022-12-24T07:17:42;0.90;;;0.55;;
49852;SDS011;35751;48.072;11.688;2022-12-24T07:20:09;0.68;;;0.68;;
49852;SDS011;35751;48.072;11.688;2022-12-24T07:22:38;1.13;;;0.60;;
49852;SDS011;35751;48.072;11.688;2022-12-24T07:25:04;0.88;;;0.68;;
49852;SDS011;35751;48.072;11.688;2022-12-24T07:27:30;2.53;;;0.63;;
49852;SDS011;35751;48.072;11.688;2022-12-24T07:29:58;0.80;;;0.60;;
49852;SDS011;35751;48.072;11.688;2022-12-24T07:32:24;1.25;;;0.52;;
49852;SDS011;35751;48.072;11.688;2022-12-24T07:34:50;0.45;;;0.30;;
49852;SDS011;35751;48.072;11.688;2022-12-24T07:37:16;0.85;;;0.40;;
49852;SDS011;35751;48.072;11.688;2022-12-24T07:39:42;0.60;;;0.43;;
49852;SDS011;35751;48.072;11.688;2022-12-24T07:42:07;2.20;;;0.50;;
49852;SDS011;35751;48.072;11.688;2022-12-24T07:44:33;3.03;;;0.73;;
49852;SDS011;35751;48.072;11.688;2022-12-24T07:46:59;0.68;;;0.60;;
49852;SDS011;35751;48.072;11.688;2022-12-24T07:49:25;1.42;;;0.65;;
49852;SDS011;35751;48.072;11.688;2022-12-24T07:51:51;0.93;;;0.77;;
49852;SDS011;35751;48.072;11.688;2022-12-24T07:54:16;0.60;;;0.50;;
49852;SDS011;35751;48.072;11.688;2022-12-24T07:56:42;0.65;;;0.47;;
49852;SDS011;35751;48.072;11.688;2022-12-24T07:59:11;0.95;;;0.47;;
49852;SDS011;35751;48.072;11.688;2022-12-24T08:01:38;0.55;;;0.50;;
49852;SDS011;35751;48.072;11.688;2022-12-24T08:04:04;0.60;;;0.60;;
49852;SDS011;35751;48.072;11.688;2022-12-24T08:06:30;1.05;;;0.60;;
49852;SDS011;35751;48.072;11.688;2022-12-24T08:08:56;2.03;;;0.63;;
49852;SDS011;35751;48.072;11.688;2022-12-24T08:11:22;1.70;;;0.43;;
49852;SDS011;35751;48.072;11.688;2022-12-24T08:13:47;1.67;;;0.73;;
49852;SDS011;35751;48.072;11.688;2022-12-24T08:16:13;1.42;;;0.70;;
49852;SDS011;35751;48.072;11.688;2022-12-24T08:18:40;0.47;;;0.30;;
49852;SDS011;35751;48.072;11.688;2022-12-24T08:21:06;1.70;;;1.60;;
49852;SDS011;35751;48.072;11.688;2022-12-24T08:23:33;1.27;;;0.40;;
49852;SDS011;35751;48.072;11.688;2022-12-24T08:25:59;0.68;;;0.30;;
49852;SDS011;35751;48.072;11.688;2022-12-24T08:28:26;0.80;;;0.40;;
49852;SDS011;35751;48.072;11.688;2022-12-24T08:30:52;0.57;;;0.40;;
49852;SDS011;35751;48.072;11.688;2022-12-24T08:33:18;1.30;;;0.60;;
49852;SDS011;35751;48.072;11.688;2022-12-24T08:35:48;0.77;;;0.57;;
49852;SDS011;35751;48.072;11.688;2022-12-24T08:38:14;0.88;;;0.55;;
49852;SDS011;35751;48.072;11.688;2022-12-24T08:40:41;1.55;;;0.40;;
49852;SDS011;35751;48.072;11.688;2022-12-24T08:43:07;0.55;;;0.47;;
49852;SDS011;35751;48.072;11.688;2022-12-24T08:45:33;0.65;;;0.60;;
49852;SDS011;35751;48.072;11.688;2022-12-24T08:47:58;0.88;;;0.70;;
49852;SDS011;35751;48.072;11.688;2022-12-24T08:50:24;1.25;;;0.38;;
49852;SDS011;35751;48.072;11.688;2022-12-24T08:52:52;1.20;;;0.63;;
49852;SDS011;35751;48.072;11.688;2022-12-24T08:55:18;0.82;;;0.30;;
49852;SDS011;35751;48.072;11.688;2022-12-24T08:57:45;1.15;;;0.55;;
49852;SDS011;35751;48.072;11.688;2022-12-24T09:00:11;1.05;;;0.60;;
49852;SDS011;35751;48.072;11.688;2022-12-24T09:02:37;0.85;;;0.50;;
49852;SDS011;35751;48.072;11.688;2022-12-24T09:05:03;1.33;;;0.57;;
49852;SDS011;35751;48.072;11.688;2022-12-24T09:07:29;0.40;;;0.40;;
49852;SDS011;35751;48.072;11.688;2022-12-24T09:09:55;0.80;;;0.50;;
49852;SDS011;35751;48.072;11.688;2022-12-24T09:12:20;0.57;;;0.50;;
49852;SDS011;35751;48.072;11.688;2022-12-24T09:14:46;1.00;;;0.60;;
49852;SDS011;35751;48.072;11.688;2022-12-24T09:17:11;3.33;;;0.70;;
49852;SDS011;35751;48.072;11.688;2022-12-24T09:19:37;0.93;;;0.50;;
49852;SDS011;35751;48.072;11.688;2022-12-24T09:22:03;0.90;;;0.55;;
49852;SDS011;35751;48.072;11.688;2022-12-24T09:24:28;2.05;;;1.40;;
49852;SDS011;35751;48.072;11.688;2022-12-24T09:26:54;4.63;;;1.33;;
49852;SDS011;35751;48.072;11.688;2022-12-24T09:29:19;2.85;;;0.68;;
49852;SDS011;35751;48.072;11.688;2022-12-24T09:31:45;5.20;;;0.90;;
49852;SDS011;35751;48.072;11.688;2022-12-24T09:34:11;2.33;;;0.52;;
49852;SDS011;35751;48.072;11.688;2022-12-24T09:36:36;2.42;;;0.75;;
49852;SDS011;35751;48.072;11.688;2022-12-24T09:39:02;2.20;;;0.50;;
49852;SDS011;35751;48.072;11.688;2022-12-24T09:41:42;1.85;;;1.13;;
49852;SDS011;35751;48.072;11.688;2022-12-24T09:47:51;2.28;;;0.60;;
49852;SDS011;35751;48.072;11.688;2022-12-24T09:52:57;0.75;;;0.60;;
49852;SDS011;35751;48.072;11.688;2022-12-24T09:55:26;1.13;;;0.77;;
49852;SDS011;35751;48.072;11.688;2022-12-24T09:57:54;2.47;;;1.00;;
49852;SDS011;35751;48.072;11.688;2022-12-24T10:00:22;3.03;;;0.85;;
49852;SDS011;35751;48.072;11.688;2022-12-24T10:02:51;2.05;;;0.70;;
49852;SDS011;35751;48.072;11.688;2022-12-24T10:05:17;1.10;;;0.68;;
49852;SDS011;35751;48.072;11.688;2022-12-24T10:08:22;1.25;;;0.60;;
49852;SDS011;35751;48.072;11.688;2022-12-24T10:10:51;1.58;;;0.60;;
49852;SDS011;35751;48.072;11.688;2022-12-24T10:16:31;3.45;;;1.15;;
49852;SDS011;35751;48.072;11.688;2022-12-24T10:29:46;0.88;;;0.60;;
49852;SDS011;35751;48.072;11.688;2022-12-24T10:32:16;2.57;;;1.17;;
49852;SDS011;35751;48.072;11.688;2022-12-24T10:35:03;1.50;;;0.50;;
49852;SDS011;35751;48.072;11.688;2022-12-24T10:37:33;0.82;;;0.60;;
49852;SDS011;35751;48.072;11.688;2022-12-24T10:39:58;1.17;;;1.08;;
49852;SDS011;35751;48.072;11.688;2022-12-24T10:42:35;0.50;;;0.40;;
49852;SDS011;35751;48.072;11.688;2022-12-24T10:45:04;2.35;;;0.70;;
49852;SDS011;35751;48.072;11.688;2022-12-24T10:47:32;1.02;;;0.73;;
49852;SDS011;35751;48.072;11.688;2022-12-24T10:50:03;0.68;;;0.50;;
49852;SDS011;35751;48.072;11.688;2022-12-24T10:52:48;4.40;;;0.80;;
49852;SDS011;35751;48.072;11.688;2022-12-24T10:57:44;1.27;;;1.00;;
49852;SDS011;35751;48.072;11.688;2022-12-24T11:00:18;1.63;;;0.98;;
49852;SDS011;35751;48.072;11.688;2022-12-24T11:02:46;1.77;;;0.88;;
49852;SDS011;35751;48.072;11.688;2022-12-24T11:05:29;2.78;;;0.77;;
49852;SDS011;35751;48.072;11.688;2022-12-24T11:08:02;2.50;;;1.10;;
49852;SDS011;35751;48.072;11.688;2022-12-24T11:10:30;1.08;;;0.60;;
49852;SDS011;35751;48.072;11.688;2022-12-24T11:12:58;2.33;;;0.55;;
49852;SDS011;35751;48.072;11.688;2022-12-24T11:15:26;0.85;;;0.52;;
49852;SDS011;35751;48.072;11.688;2022-12-24T11:18:04;3.22;;;0.80;;
49852;SDS011;35751;48.072;11.688;2022-12-24T11:20:37;2.65;;;1.00;;
49852;SDS011;35751;48.072;11.688;2022-12-24T11:23:02;3.13;;;0.80;;
49852;SDS011;35751;48.072;11.688;2022-12-24T11:25:31;3.25;;;0.82;;
49852;SDS011;35751;48.072;11.688;2022-12-24T11:28:09;1.20;;;0.50;;
49852;SDS011;35751;48.072;11.688;2022-12-24T11:30:37;1.40;;;0.88;;
49852;SDS011;35751;48.072;11.688;2022-12-24T11:35:30;2.85;;;0.93;;
49852;SDS011;35751;48.072;11.688;2022-12-24T11:40:35;1.30;;;0.60;;
49852;SDS011;35751;48.072;11.688;2022-12-24T11:43:02;4.35;;;0.90;;
49852;SDS011;35751;48.072;11.688;2022-12-24T11:45:30;3.00;;;0.77;;
49852;SDS011;35751;48.072;11.688;2022-12-24T11:47:57;4.93;;;0.68;;
49852;SDS011;35751;48.072;11.688;2022-12-24T11:50:28;1.05;;;0.65;;
49852;SDS011;35751;48.072;11.688;2022-12-24T12:01:02;1.52;;;0.70;;
49852;SDS011;35751;48.072;11.688;2022-12-24T12:06:46;1.15;;;0.77;;
49852;SDS011;35751;48.072;11.688;2022-12-24T12:09:24;2.35;;;0.80;;
49852;SDS011;35751;48.072;11.688;2022-12-24T12:11:57;1.55;;;0.80;;
49852;SDS011;35751;48.072;11.688;2022-12-24T12:14:27;1.35;;;0.73;;
49852;SDS011;35751;48.072;11.688;2022-12-24T12:16:58;3.47;;;1.27;;
49852;SDS011;35751;48.072;11.688;2022-12-24T12:33:47;2.05;;;1.30;;
49852;SDS011;35751;48.072;11.688;2022-12-24T12:36:16;1.75;;;0.98;;
49852;SDS011;35751;48.072;11.688;2022-12-24T12:38:45;2.85;;;1.23;;
49852;SDS011;35751;48.072;11.688;2022-12-24T12:46:43;1.83;;;0.50;;
49852;SDS011;35751;48.072;11.688;2022-12-24T12:49:15;3.10;;;0.80;;
49852;SDS011;35751;48.072;11.688;2022-12-24T12:57:07;4.47;;;3.08;;
49852;SDS011;35751;48.072;11.688;2022-12-24T13:05:15;1.58;;;1.10;;
49852;SDS011;35751;48.072;11.688;2022-12-24T13:10:29;4.45;;;1.10;;
49852;SDS011;35751;48.072;11.688;2022-12-24T13:21:19;3.63;;;1.08;;
49852;SDS011;35751;48.072;11.688;2022-12-24T13:23:49;3.40;;;1.45;;
49852;SDS011;35751;48.072;11.688;2022-12-24T13:26:15;2.53;;;0.85;;
49852;SDS011;35751;48.072;11.688;2022-12-24T13:28:42;1.55;;;0.93;;
49852;SDS011;35751;48.072;11.688;2022-12-24T13:33:50;2.25;;;1.38;;
49852;SDS011;35751;48.072;11.688;2022-12-24T13:36:18;2.80;;;1.13;;
49852;SDS011;35751;48.072;11.688;2022-12-24T13:38:48;1.88;;;0.70;;
49852;SDS011;35751;48.072;11.688;2022-12-24T13:49:42;5.97;;;1.45;;
49852;SDS011;35751;48.072;11.688;2022-12-24T13:59:59;2.63;;;1.23;;
49852;SDS011;35751;48.072;11.688;2022-12-24T14:02:47;1.70;;;0.93;;
49852;SDS011;35751;48.072;11.688;2022-12-24T14:08:15;2.38;;;0.93;;
49852;SDS011;35751;48.072;11.688;2022-12-24T14:10:55;1.10;;;0.93;;
49852;SDS011;35751;48.072;11.688;2022-12-24T14:16:02;4.00;;;1.20;;
49852;SDS011;35751;48.072;11.688;2022-12-24T14:18:38;4.05;;;2.95;;
49852;SDS011;35751;48.072;11.688;2022-12-24T14:21:06;0.93;;;0.80;;
49852;SDS011;35751;48.072;11.688;2022-12-24T14:23:42;5.05;;;2.25;;
49852;SDS011;35751;48.072;11.688;2022-12-24T14:26:13;3.38;;;1.85;;
49852;SDS011;35751;48.072;11.688;2022-12-24T14:29:45;4.68;;;1.98;;
49852;SDS011;35751;48.072;11.688;2022-12-24T14:32:00;1.70;;;1.45;;
49852;SDS011;35751;48.072;11.688;2022-12-24T14:34:29;5.43;;;1.10;;
49852;SDS011;35751;48.072;11.688;2022-12-24T14:36:55;1.77;;;1.33;;
49852;SDS011;35751;48.072;11.688;2022-12-24T14:39:30;2.55;;;1.20;;
49852;SDS011;35751;48.072;11.688;2022-12-24T14:56:09;1.67;;;1.27;;
49852;SDS011;35751;48.072;11.688;2022-12-24T14:58:38;3.42;;;2.03;;
49852;SDS011;35751;48.072;11.688;2022-12-24T15:06:34;4.10;;;2.72;;
49852;SDS011;35751;48.072;11.688;2022-12-24T15:09:04;3.53;;;2.30;;
49852;SDS011;35751;48.072;11.688;2022-12-24T15:11:31;4.20;;;2.22;;
49852;SDS011;35751;48.072;11.688;2022-12-24T15:13:58;5.03;;;2.80;;
49852;SDS011;35751;48.072;11.688;2022-12-24T15:16:26;2.90;;;1.65;;
49852;SDS011;35751;48.072;11.688;2022-12-24T15:18:55;3.15;;;2.25;;
49852;SDS011;35751;48.072;11.688;2022-12-24T15:23:49;8.75;;;3.60;;
49852;SDS011;35751;48.072;11.688;2022-12-24T15:28:46;2.95;;;1.80;;
49852;SDS011;35751;48.072;11.688;2022-12-24T15:31:14;2.65;;;1.77;;
49852;SDS011;35751;48.072;11.688;2022-12-24T15:33:45;3.03;;;1.55;;
49852;SDS011;35751;48.072;11.688;2022-12-24T15:36:12;5.75;;;2.10;;
49852;SDS011;35751;48.072;11.688;2022-12-24T15:38:39;2.10;;;1.77;;
49852;SDS011;35751;48.072;11.688;2022-12-24T15:41:17;2.67;;;1.60;;
49852;SDS011;35751;48.072;11.688;2022-12-24T15:43:47;2.35;;;1.13;;
49852;SDS011;35751;48.072;11.688;2022-12-24T15:46:24;2.55;;;1.30;;
49852;SDS011;35751;48.072;11.688;2022-12-24T15:48:51;1.67;;;1.30;;
49852;SDS011;35751;48.072;11.688;2022-12-24T15:51:22;2.13;;;1.02;;
49852;SDS011;35751;48.072;11.688;2022-12-24T15:53:52;1.48;;;1.25;;
49852;SDS011;35751;48.072;11.688;2022-12-24T15:59:19;3.85;;;1.27;;
49852;SDS011;35751;48.072;11.688;2022-12-24T16:01:50;1.25;;;1.10;;
49852;SDS011;35751;48.072;11.688;2022-12-24T16:04:23;1.65;;;1.02;;
49852;SDS011;35751;48.072;11.688;2022-12-24T16:06:54;3.55;;;1.48;;
49852;SDS011;35751;48.072;11.688;2022-12-24T16:12:00;3.13;;;1.38;;
49852;SDS011;35751;48.072;11.688;2022-12-24T16:14:27;3.70;;;1.70;;
49852;SDS011;35751;48.072;11.688;2022-12-24T16:16:53;2.50;;;1.48;;
49852;SDS011;35751;48.072;11.688;2022-12-24T16:19:23;2.63;;;1.75;;
49852;SDS011;35751;48.072;11.688;2022-12-24T16:21:51;2.17;;;1.42;;
49852;SDS011;35751;48.072;11.688;2022-12-24T16:24:25;2.17;;;1.58;;
49852;SDS011;35751;48.072;11.688;2022-12-24T16:26:52;2.55;;;1.48;;
49852;SDS011;35751;48.072;11.688;2022-12-24T16:29:18;4.35;;;1.35;;
49852;SDS011;35751;48.072;11.688;2022-12-24T16:31:51;1.95;;;1.50;;
49852;SDS011;35751;48.072;11.688;2022-12-24T16:34:18;3.05;;;1.63;;
49852;SDS011;35751;48.072;11.688;2022-12-24T16:36:45;29.65;;;13.13;;
49852;SDS011;35751;48.072;11.688;2022-12-24T16:39:18;22.38;;;14.13;;
49852;SDS011;35751;48.072;11.688;2022-12-24T16:41:51;5.25;;;2.88;;
49852;SDS011;35751;48.072;11.688;2022-12-24T16:44:36;4.22;;;2.60;;
49852;SDS011;35751;48.072;11.688;2022-12-24T16:47:02;3.08;;;1.85;;
49852;SDS011;35751;48.072;11.688;2022-12-24T16:49:29;4.10;;;1.63;;
49852;SDS011;35751;48.072;11.688;2022-12-24T16:51:57;2.67;;;1.92;;
49852;SDS011;35751;48.072;11.688;2022-12-24T16:54:23;2.38;;;1.75;;
49852;SDS011;35751;48.072;11.688;2022-12-24T16:56:48;3.78;;;2.20;;
49852;SDS011;35751;48.072;11.688;2022-12-24T16:59:15;2.65;;;1.50;;
49852;SDS011;35751;48.072;11.688;2022-12-24T17:01:42;2.97;;;1.45;;
49852;SDS011;35751;48.072;11.688;2022-12-24T17:04:08;3.47;;;1.80;;
49852;SDS011;35751;48.072;11.688;2022-12-24T17:06:34;4.47;;;1.83;;
49852;SDS011;35751;48.072;11.688;2022-12-24T17:09:00;2.10;;;1.77;;
49852;SDS011;35751;48.072;11.688;2022-12-24T17:11:25;2.40;;;1.50;;
49852;SDS011;35751;48.072;11.688;2022-12-24T17:13:51;4.15;;;1.85;;
49852;SDS011;35751;48.072;11.688;2022-12-24T17:16:16;5.15;;;2.42;;
49852;SDS011;35751;48.072;11.688;2022-12-24T17:18:42;4.70;;;2.40;;
49852;SDS011;35751;48.072;11.688;2022-12-24T17:21:08;23.02;;;11.20;;
49852;SDS011;35751;48.072;11.688;2022-12-24T17:23:34;72.75;;;34.63;;
49852;SDS011;35751;48.072;11.688;2022-12-24T17:26:00;15.70;;;11.05;;
49852;SDS011;35751;48.072;11.688;2022-12-24T17:28:25;27.17;;;14.02;;